Riskybusiness — WDC4820 — position and weather

sailwx.info

Track history (hours):
 
Tides and Currents Weather Stations Pressure Air Temp Water Temp Dewpoint Dewpoint Depression Visibility Wind Speed Wind Dir Waves Ship Positions

Riskybusiness

Owner: mikuletzky, hunter r, manahawkin, NJ. More information available from US FCC via Universal Licensing System and Coast Guard Vessel Documentation Center.

Last reported at 2018-Jan-28 20:23 UTC. Time now 2018-May-26 04:00 UTC.
Position N 39°45' W 074°07'.
Warning: this ship's position is months out of date.

Length 14 m.

Type: Fishing. MMSI: 367031170.

Date/timePositionNaut miles runAvg speedWind from/ knotsBaromVisibWave heightAir tempDewpointWater temp
2018-Jan-28 20:23N 39°45' W 074°07'0 0.1
2018-Jan-28 19:51N 39°45' W 074°07'1 3.1
2018-Jan-28 19:30N 39°46' W 074°06'5 0.6
2018-Jan-28 11:40N 39°48' W 074°01'312.8
2018-Jan-28 11:28N 39°47' W 074°03'3 6.8
2018-Jan-28 10:59N 39°45' W 074°07'0 0.0
2018-Jan-26 19:01N 39°45' W 074°07'0 0.0
2018-Jan-26 18:58N 39°45' W 074°07'0 0.6
2018-Jan-26 18:27N 39°45' W 074°07'7 1.0
2018-Jan-26 11:38N 39°50' W 073°60'212.7
2018-Jan-26 11:29N 39°48' W 074°02'510.5
2018-Jan-26 11:00N 39°45' W 074°07'  
2018-Jan-22 22:24N 39°45' W 074°07'0 0.8
2018-Jan-22 22:00N 39°45' W 074°07'5 9.7
2018-Jan-22 21:30N 39°48' W 074°02'3 0.4
2018-Jan-22 14:58N 39°50' W 073°58'612.6
2018-Jan-22 14:30N 39°46' W 074°05'2 0.1
2018-Jan-21 18:30N 39°45' W 074°07'3 5.2
2018-Jan-21 18:00N 39°47' W 074°04'5 1.0
2018-Jan-21 12:35N 39°51' W 073°60'1 9.8
2018-Jan-21 12:28N 39°50' W 074°01'4 9.7
2018-Jan-21 12:01N 39°46' W 074°04'  
Track history (hours):
 
Tides and Currents Weather Stations Pressure Air Temp Water Temp Dewpoint Dewpoint Depression Visibility Wind Speed Wind Dir Waves Ship Positions

Riskybusiness

Owner: mikuletzky, hunter r, manahawkin, NJ. More information available from US FCC via Universal Licensing System and Coast Guard Vessel Documentation Center.

Last reported at 2018-Jan-28 20:23 UTC. Time now 2018-May-26 04:00 UTC.
Position N 39°45' W 074°07'.
Warning: this ship's position is months out of date.

Length 14 m.

Type: Fishing. MMSI: 367031170.

Date/timePositionNaut miles runAvg speedWind from/ knotsBaromVisibWave heightAir tempDewpointWater temp
2018-Jan-28 20:23N 39°45' W 074°07'0 0.1
2018-Jan-28 19:51N 39°45' W 074°07'1 3.1
2018-Jan-28 19:30N 39°46' W 074°06'5 0.6
2018-Jan-28 11:40N 39°48' W 074°01'312.8
2018-Jan-28 11:28N 39°47' W 074°03'3 6.8
2018-Jan-28 10:59N 39°45' W 074°07'0 0.0
2018-Jan-26 19:01N 39°45' W 074°07'0 0.0
2018-Jan-26 18:58N 39°45' W 074°07'0 0.6
2018-Jan-26 18:27N 39°45' W 074°07'7 1.0
2018-Jan-26 11:38N 39°50' W 073°60'212.7
2018-Jan-26 11:29N 39°48' W 074°02'510.5
2018-Jan-26 11:00N 39°45' W 074°07'  
2018-Jan-22 22:24N 39°45' W 074°07'0 0.8
2018-Jan-22 22:00N 39°45' W 074°07'5 9.7
2018-Jan-22 21:30N 39°48' W 074°02'3 0.4
2018-Jan-22 14:58N 39°50' W 073°58'612.6
2018-Jan-22 14:30N 39°46' W 074°05'2 0.1
2018-Jan-21 18:30N 39°45' W 074°07'3 5.2
2018-Jan-21 18:00N 39°47' W 074°04'5 1.0
2018-Jan-21 12:35N 39°51' W 073°60'1 9.8
2018-Jan-21 12:28N 39°50' W 074°01'4 9.7
2018-Jan-21 12:01N 39°46' W 074°04'  

Dump ship's entire track history